sensor_id;sensor_type;location;lat;lon;timestamp;temperature;humidity
71649;SHT31;70112;45.624;11.760;2024-01-27T20:10:33;4.08;77.02
71649;SHT31;70112;45.624;11.760;2024-01-27T20:12:59;4.11;77.10
71649;SHT31;70112;45.624;11.760;2024-01-27T20:15:25;4.15;76.96
71649;SHT31;70112;45.624;11.760;2024-01-27T20:17:59;4.19;76.88
71649;SHT31;70112;45.624;11.760;2024-01-27T20:23:04;4.27;76.62
71649;SHT31;70112;45.624;11.760;2024-01-27T20:28:05;4.33;76.69
71649;SHT31;70112;45.624;11.760;2024-01-27T20:30:33;4.40;76.60
71649;SHT31;70112;45.624;11.760;2024-01-27T20:33:02;4.42;76.61
71649;SHT31;70112;45.624;11.760;2024-01-27T20:35:29;4.46;76.69
71649;SHT31;70112;45.624;11.760;2024-01-27T20:37:57;4.46;76.59
71649;SHT31;70112;45.624;11.760;2024-01-27T20:40:26;4.45;76.58
71649;SHT31;70112;45.624;11.760;2024-01-27T20:42:54;4.46;76.59
71649;SHT31;70112;45.624;11.760;2024-01-27T20:45:20;4.45;76.51
71649;SHT31;70112;45.624;11.760;2024-01-27T20:47:47;4.46;76.60
71649;SHT31;70112;45.624;11.760;2024-01-27T20:50:15;4.47;76.60
71649;SHT31;70112;45.624;11.760;2024-01-27T20:52:41;4.49;76.62
71649;SHT31;70112;45.624;11.760;2024-01-27T20:55:29;4.51;76.61
71649;SHT31;70112;45.624;11.760;2024-01-27T20:57:56;4.54;76.66
71649;SHT31;70112;45.624;11.760;2024-01-27T21:00:31;4.60;76.68
71649;SHT31;70112;45.624;11.760;2024-01-27T21:03:00;4.65;76.60
71649;SHT31;70112;45.624;11.760;2024-01-27T21:05:31;4.70;76.48
71649;SHT31;70112;45.624;11.760;2024-01-27T21:07:57;4.75;76.47
71649;SHT31;70112;45.624;11.760;2024-01-27T21:10:26;4.78;76.60
71649;SHT31;70112;45.624;11.760;2024-01-27T21:12:52;4.77;76.77
71649;SHT31;70112;45.624;11.760;2024-01-27T21:15:19;4.81;76.72
71649;SHT31;70112;45.624;11.760;2024-01-27T21:17:44;4.84;76.59
71649;SHT31;70112;45.624;11.760;2024-01-27T21:20:32;4.87;76.37
71649;SHT31;70112;45.624;11.760;2024-01-27T21:23:00;4.88;76.09
71649;SHT31;70112;45.624;11.760;2024-01-27T21:25:36;4.85;75.88
71649;SHT31;70112;45.624;11.760;2024-01-27T21:28:08;4.84;75.75
71649;SHT31;70112;45.624;11.760;2024-01-27T21:30:39;4.83;75.64
71649;SHT31;70112;45.624;11.760;2024-01-27T21:33:10;4.80;75.48
71649;SHT31;70112;45.624;11.760;2024-01-27T21:35:43;4.72;75.33
71649;SHT31;70112;45.624;11.760;2024-01-27T21:38:12;4.60;75.34
71649;SHT31;70112;45.624;11.760;2024-01-27T21:40:38;4.51;75.44
71649;SHT31;70112;45.624;11.760;2024-01-27T21:43:09;4.47;75.60
71649;SHT31;70112;45.624;11.760;2024-01-27T21:45:36;4.43;75.74
71649;SHT31;70112;45.624;11.760;2024-01-27T21:48:13;4.42;75.82
71649;SHT31;70112;45.624;11.760;2024-01-27T21:50:39;4.44;75.90
71649;SHT31;70112;45.624;11.760;2024-01-27T21:53:06;4.41;75.80
71649;SHT31;70112;45.624;11.760;2024-01-27T21:55:32;4.38;75.80
71649;SHT31;70112;45.624;11.760;2024-01-27T21:58:01;4.37;75.90
71649;SHT31;70112;45.624;11.760;2024-01-27T22:00:31;4.36;75.92
71649;SHT31;70112;45.624;11.760;2024-01-27T22:05:33;4.35;76.00
71649;SHT31;70112;45.624;11.760;2024-01-27T22:07:59;4.34;75.96
71649;SHT31;70112;45.624;11.760;2024-01-27T22:10:49;4.33;75.90
71649;SHT31;70112;45.624;11.760;2024-01-27T22:13:17;4.32;75.90
71649;SHT31;70112;45.624;11.760;2024-01-27T22:15:43;4.31;75.84
71649;SHT31;70112;45.624;11.760;2024-01-27T22:18:13;4.28;75.93
71649;SHT31;70112;45.624;11.760;2024-01-27T22:20:39;4.31;75.90
71649;SHT31;70112;45.624;11.760;2024-01-27T22:23:08;4.30;75.90
71649;SHT31;70112;45.624;11.760;2024-01-27T22:25:36;4.34;75.84
71649;SHT31;70112;45.624;11.760;2024-01-27T22:31:08;4.37;75.59
71649;SHT31;70112;45.624;11.760;2024-01-27T22:33:34;4.33;75.40
71649;SHT31;70112;45.624;11.760;2024-01-27T22:36:26;4.32;75.45
71649;SHT31;70112;45.624;11.760;2024-01-27T22:38:55;4.33;75.34
71649;SHT31;70112;45.624;11.760;2024-01-27T22:41:34;4.34;75.18
71649;SHT31;70112;45.624;11.760;2024-01-27T22:44:22;4.35;74.78
71649;SHT31;70112;45.624;11.760;2024-01-27T22:46:48;4.30;74.71
71649;SHT31;70112;45.624;11.760;2024-01-27T22:49:19;4.26;74.70
71649;SHT31;70112;45.624;11.760;2024-01-27T22:51:46;4.17;74.61
71649;SHT31;70112;45.624;11.760;2024-01-27T22:54:14;4.09;74.68
71649;SHT31;70112;45.624;11.760;2024-01-27T22:56:42;4.05;74.59
71649;SHT31;70112;45.624;11.760;2024-01-27T22:59:31;4.00;74.50
71649;SHT31;70112;45.624;11.760;2024-01-27T23:02:08;4.02;74.68
71649;SHT31;70112;45.624;11.760;2024-01-27T23:04:37;4.01;74.60
71649;SHT31;70112;45.624;11.760;2024-01-27T23:07:36;3.95;74.58
71649;SHT31;70112;45.624;11.760;2024-01-27T23:13:02;3.85;74.38
71649;SHT31;70112;45.624;11.760;2024-01-27T23:15:31;3.73;74.17
71649;SHT31;70112;45.624;11.760;2024-01-27T23:17:57;3.65;74.48
71649;SHT31;70112;45.624;11.760;2024-01-27T23:20:33;3.66;74.52
71649;SHT31;70112;45.624;11.760;2024-01-27T23:23:07;3.61;74.38
71649;SHT31;70112;45.624;11.760;2024-01-27T23:25:33;3.54;74.48
71649;SHT31;70112;45.624;11.760;2024-01-27T23:28:16;3.55;74.50
71649;SHT31;70112;45.624;11.760;2024-01-27T23:30:42;3.53;74.42
71649;SHT31;70112;45.624;11.760;2024-01-27T23:33:32;3.45;74.45
71649;SHT31;70112;45.624;11.760;2024-01-27T23:36:06;3.44;74.65
71649;SHT31;70112;45.624;11.760;2024-01-27T23:38:56;3.47;74.67
71649;SHT31;70112;45.624;11.760;2024-01-27T23:41:44;3.48;74.85
71649;SHT31;70112;45.624;11.760;2024-01-27T23:44:41;3.55;74.88
71649;SHT31;70112;45.624;11.760;2024-01-27T23:47:20;3.59;74.83
71649;SHT31;70112;45.624;11.760;2024-01-27T23:53:25;3.69;74.80
71649;SHT31;70112;45.624;11.760;2024-01-27T23:56:03;3.68;74.80
71649;SHT31;70112;45.624;11.760;2024-01-27T23:58:37;3.65;74.94
